createdAt,value
2018-08-24T00:00:45.358Z,7.65
2018-08-24T00:03:49.794Z,7.62
2018-08-24T00:06:54.200Z,8.03
2018-08-24T00:09:58.619Z,7.85
2018-08-24T00:13:03.036Z,7.80
2018-08-24T00:16:07.464Z,7.92
2018-08-24T00:19:13.940Z,8.58
2018-08-24T00:22:18.387Z,8.33
2018-08-24T00:25:22.809Z,7.00
2018-08-24T00:28:27.233Z,7.78
2018-08-24T00:31:31.752Z,7.40
2018-08-24T00:34:36.191Z,7.92
2018-08-24T00:37:40.611Z,7.45
2018-08-24T00:40:45.015Z,6.65
2018-08-24T00:43:49.455Z,7.95
2018-08-24T00:46:53.859Z,7.15
2018-08-24T00:49:58.273Z,6.95
2018-08-24T00:53:02.765Z,7.05
2018-08-24T00:56:07.974Z,7.05
2018-08-24T00:59:12.405Z,7.97
2018-08-24T01:02:16.822Z,7.00
2018-08-24T01:05:21.243Z,8.45
2018-08-24T01:08:25.678Z,7.58
2018-08-24T01:11:35.106Z,7.40
2018-08-24T01:14:41.337Z,7.85
2018-08-24T01:17:50.990Z,7.53
2018-08-24T01:20:56.134Z,8.08
2018-08-24T01:24:00.602Z,7.22
2018-08-24T01:27:05.987Z,7.47
2018-08-24T01:30:10.427Z,7.15
2018-08-24T01:33:15.139Z,7.97
2018-08-24T01:36:19.583Z,8.03
2018-08-24T01:39:24.080Z,7.53
2018-08-24T01:42:28.486Z,8.05
2018-08-24T01:45:32.917Z,7.50
2018-08-24T01:48:37.502Z,8.45
2018-08-24T01:51:41.922Z,7.62
2018-08-24T01:54:46.346Z,7.30
2018-08-24T01:57:50.749Z,8.70
2018-08-24T02:00:55.174Z,8.30
2018-08-24T02:03:59.598Z,7.75
2018-08-24T02:07:04.009Z,8.43
2018-08-24T02:10:13.659Z,8.73
2018-08-24T02:13:23.305Z,7.12
2018-08-24T02:16:31.828Z,7.45
2018-08-24T02:19:41.434Z,7.95
2018-08-24T02:22:50.009Z,8.03
2018-08-24T02:25:54.446Z,7.08
2018-08-24T02:28:58.862Z,6.70
2018-08-24T02:32:03.370Z,7.22
2018-08-24T02:35:09.125Z,7.42
2018-08-24T02:38:13.534Z,6.97
2018-08-24T02:41:17.974Z,7.22
2018-08-24T02:44:22.394Z,6.87
2018-08-24T02:47:26.818Z,7.22
2018-08-24T02:50:31.266Z,6.97
2018-08-24T02:53:35.716Z,6.45
2018-08-24T02:56:40.135Z,6.72
2018-08-24T02:59:44.704Z,6.75
2018-08-24T03:02:49.146Z,6.60
2018-08-24T03:05:53.626Z,5.65
2018-08-24T03:08:58.048Z,5.70
2018-08-24T03:12:02.474Z,6.10
2018-08-24T03:15:06.929Z,6.45
2018-08-24T03:18:11.391Z,6.37
2018-08-24T03:21:15.838Z,4.97
2018-08-24T03:24:20.234Z,5.55
2018-08-24T03:27:24.686Z,5.62
2018-08-24T03:30:29.110Z,6.00
2018-08-24T03:33:33.538Z,5.30
2018-08-24T03:36:37.957Z,5.87
2018-08-24T03:39:42.374Z,5.47
2018-08-24T03:42:46.819Z,5.45
2018-08-24T03:45:51.269Z,5.05
2018-08-24T03:48:55.737Z,4.90
2018-08-24T03:52:00.174Z,6.00
2018-08-24T03:55:04.641Z,5.40
2018-08-24T03:58:09.125Z,5.65
2018-08-24T04:01:13.602Z,4.92
2018-08-24T04:04:18.026Z,5.33
2018-08-24T04:07:22.450Z,6.92
2018-08-24T04:10:27.350Z,5.62
2018-08-24T04:13:31.789Z,5.67
2018-08-24T04:16:41.226Z,4.70
2018-08-24T04:19:45.643Z,4.70
2018-08-24T04:22:50.122Z,4.97
2018-08-24T04:25:54.577Z,5.22
2018-08-24T04:28:58.977Z,5.55
2018-08-24T04:32:03.437Z,5.42
2018-08-24T04:35:08.038Z,5.75
2018-08-24T04:38:12.462Z,5.33
2018-08-24T04:41:16.938Z,5.30
2018-08-24T04:44:21.364Z,4.78
2018-08-24T04:47:25.806Z,5.20
2018-08-24T04:50:30.255Z,5.22
2018-08-24T04:53:34.693Z,5.08
2018-08-24T04:56:39.108Z,5.15
2018-08-24T04:59:43.531Z,5.70
2018-08-24T05:02:47.970Z,5.42
2018-08-24T05:05:52.406Z,5.78
2018-08-24T05:08:56.824Z,5.47
2018-08-24T05:12:01.246Z,5.35
2018-08-24T05:15:05.684Z,5.97
2018-08-24T05:18:10.150Z,6.10
2018-08-24T05:21:14.604Z,5.03
2018-08-24T05:24:19.022Z,5.62
2018-08-24T05:27:23.461Z,5.50
2018-08-24T05:30:27.875Z,5.33
2018-08-24T05:33:32.327Z,4.87
2018-08-24T05:36:36.729Z,5.67
2018-08-24T05:39:41.158Z,5.95
2018-08-24T05:42:45.573Z,5.35
2018-08-24T05:45:50.002Z,4.80
2018-08-24T05:48:54.507Z,6.05
2018-08-24T05:51:58.861Z,5.72
2018-08-24T05:55:03.335Z,5.80
2018-08-24T05:58:08.287Z,6.25
2018-08-24T06:01:12.806Z,6.35
2018-08-24T06:04:17.234Z,6.28
2018-08-24T06:07:21.651Z,6.15
2018-08-24T06:10:26.098Z,6.30
2018-08-24T06:13:30.542Z,6.10
2018-08-24T06:16:35.062Z,5.10
2018-08-24T06:19:39.683Z,4.95
2018-08-24T06:22:44.102Z,5.45
2018-08-24T06:25:48.542Z,7.20
2018-08-24T06:28:52.996Z,6.25
2018-08-24T06:31:57.420Z,6.03
2018-08-24T06:35:01.865Z,5.78
2018-08-24T06:38:06.368Z,5.72
2018-08-24T06:41:10.798Z,5.30
2018-08-24T06:44:15.219Z,5.37
2018-08-24T06:47:19.735Z,4.70
2018-08-24T06:50:24.146Z,5.30
2018-08-24T06:53:28.667Z,4.97
2018-08-24T06:56:33.072Z,4.25
2018-08-24T06:59:37.626Z,4.65
2018-08-24T07:02:42.035Z,4.37
2018-08-24T07:05:46.572Z,4.30
2018-08-24T07:08:50.933Z,4.20
2018-08-24T07:11:55.344Z,4.90
2018-08-24T07:14:59.772Z,4.03
2018-08-24T07:18:04.313Z,4.08
2018-08-24T07:21:08.741Z,5.20
2018-08-24T07:24:13.162Z,5.10
2018-08-24T07:27:17.579Z,4.30
2018-08-24T07:30:22.016Z,4.85
2018-08-24T07:33:26.467Z,4.22
2018-08-24T07:36:30.951Z,4.35
2018-08-24T07:39:35.389Z,4.30
2018-08-24T07:42:39.835Z,5.12
2018-08-24T07:45:44.282Z,4.30
2018-08-24T07:48:48.706Z,4.58
2018-08-24T07:51:53.122Z,4.25
2018-08-24T07:54:57.561Z,4.05
2018-08-24T07:58:01.970Z,3.37
2018-08-24T08:01:06.518Z,3.35
2018-08-24T08:04:10.929Z,2.60
2018-08-24T08:07:15.386Z,2.65
2018-08-24T08:10:19.815Z,2.58
2018-08-24T08:13:24.210Z,2.42
2018-08-24T08:16:28.630Z,2.40
2018-08-24T08:19:33.138Z,2.50
2018-08-24T08:22:37.565Z,2.72
2018-08-24T08:25:42.007Z,2.40
2018-08-24T08:28:46.410Z,2.50
2018-08-24T08:31:51.054Z,2.52
2018-08-24T08:34:55.482Z,2.50
2018-08-24T08:37:59.975Z,2.25
2018-08-24T08:41:04.434Z,2.12
2018-08-24T08:44:08.946Z,2.25
2018-08-24T08:47:13.410Z,2.65
2018-08-24T08:50:17.836Z,2.30
2018-08-24T08:53:22.260Z,2.90
2018-08-24T08:56:26.697Z,2.95
2018-08-24T08:59:31.111Z,2.62
2018-08-24T09:02:35.533Z,2.95
2018-08-24T09:05:40.049Z,3.42
2018-08-24T09:08:44.454Z,2.65
2018-08-24T09:11:48.912Z,3.35
2018-08-24T09:14:53.332Z,2.98
2018-08-24T09:18:03.068Z,2.75
2018-08-24T09:21:12.774Z,2.95
2018-08-24T09:24:22.342Z,2.50
2018-08-24T09:27:35.790Z,2.35
2018-08-24T09:30:44.418Z,2.85
2018-08-24T09:33:48.854Z,2.25
2018-08-24T09:36:53.287Z,2.55
2018-08-24T09:39:57.710Z,2.65
2018-08-24T09:43:06.265Z,2.95
2018-08-24T09:46:10.718Z,2.72
2018-08-24T09:49:20.311Z,2.60
2018-08-24T09:52:28.148Z,3.05
2018-08-24T09:55:37.798Z,2.92
2018-08-24T09:58:42.250Z,2.87
2018-08-24T10:01:51.951Z,3.00
2018-08-24T10:05:01.513Z,2.83
2018-08-24T10:08:11.217Z,2.70
2018-08-24T10:11:15.713Z,3.37
2018-08-24T10:14:20.150Z,2.95
2018-08-24T10:17:26.978Z,2.52
2018-08-24T10:20:31.442Z,2.90
2018-08-24T10:23:35.933Z,3.70
2018-08-24T10:26:40.653Z,3.15
2018-08-24T10:29:45.158Z,2.62
2018-08-24T10:32:49.652Z,2.77
2018-08-24T10:35:54.071Z,2.55
2018-08-24T10:38:58.583Z,2.80
2018-08-24T10:42:02.963Z,2.50
2018-08-24T10:45:07.650Z,2.60
2018-08-24T10:48:12.155Z,1.98
2018-08-24T10:51:16.604Z,2.00
2018-08-24T10:54:21.046Z,2.27
2018-08-24T10:57:25.493Z,2.60
2018-08-24T11:00:29.922Z,3.00
2018-08-24T11:03:34.352Z,3.80
2018-08-24T11:06:38.806Z,3.80
2018-08-24T11:09:43.241Z,3.72
2018-08-24T11:12:47.703Z,3.72
2018-08-24T11:15:52.571Z,4.72
2018-08-24T11:18:57.010Z,4.85
2018-08-24T11:22:01.423Z,5.08
2018-08-24T11:25:06.347Z,4.97
2018-08-24T11:28:10.890Z,5.30
2018-08-24T11:31:15.334Z,5.10
2018-08-24T11:34:19.800Z,6.33
2018-08-24T11:37:24.281Z,5.80
2018-08-24T11:40:28.801Z,5.93
2018-08-24T11:43:33.263Z,5.97
2018-08-24T11:46:37.657Z,6.90
2018-08-24T11:49:42.090Z,6.03
2018-08-24T11:52:46.504Z,6.17
2018-08-24T11:55:50.943Z,6.27
2018-08-24T11:58:55.366Z,6.75
2018-08-24T12:01:59.814Z,7.22
2018-08-24T12:05:04.466Z,7.80
2018-08-24T12:08:09.000Z,7.30
2018-08-24T12:11:20.090Z,8.95
2018-08-24T12:14:25.263Z,9.33
2018-08-24T12:17:34.158Z,10.78
2018-08-24T12:20:38.585Z,10.20
2018-08-24T12:23:43.006Z,11.45
2018-08-24T12:26:47.414Z,11.43
2018-08-24T12:29:51.922Z,12.65
2018-08-24T12:32:56.415Z,11.90
2018-08-24T12:36:00.842Z,11.57
2018-08-24T12:39:08.239Z,11.28
2018-08-24T12:42:13.310Z,12.28
2018-08-24T12:45:17.782Z,11.60
2018-08-24T12:48:22.264Z,11.85
2018-08-24T12:51:27.006Z,11.22
2018-08-24T12:54:31.461Z,10.75
2018-08-24T12:57:35.874Z,10.85
2018-08-24T13:00:40.354Z,10.03
2018-08-24T13:03:44.991Z,10.58
2018-08-24T13:06:49.425Z,11.88
2018-08-24T13:09:53.854Z,10.40
2018-08-24T13:12:58.273Z,10.20
2018-08-24T13:16:02.833Z,11.38
2018-08-24T13:19:07.822Z,11.05
2018-08-24T13:22:12.291Z,11.10
2018-08-24T13:25:16.722Z,9.80
2018-08-24T13:28:21.174Z,10.93
2018-08-24T13:31:25.655Z,11.13
2018-08-24T13:34:30.142Z,10.70
2018-08-24T13:37:34.591Z,11.20
2018-08-24T13:40:39.032Z,10.50
2018-08-24T13:43:43.513Z,9.53
2018-08-24T13:46:47.934Z,9.63
2018-08-24T13:49:52.357Z,10.13
2018-08-24T13:52:56.911Z,9.70
2018-08-24T13:56:01.338Z,9.97
2018-08-24T13:59:05.782Z,8.60
2018-08-24T14:02:10.220Z,8.58
2018-08-24T14:05:14.656Z,8.98
2018-08-24T14:08:19.072Z,8.40
2018-08-24T14:11:23.521Z,7.80
2018-08-24T14:14:27.936Z,7.95
2018-08-24T14:17:32.359Z,8.20
2018-08-24T14:20:36.761Z,7.67
2018-08-24T14:23:41.254Z,8.00
2018-08-24T14:26:45.723Z,7.53
2018-08-24T14:29:50.145Z,7.55
2018-08-24T14:32:54.586Z,7.20
2018-08-24T14:35:58.981Z,7.25
2018-08-24T14:39:03.512Z,7.62
2018-08-24T14:42:07.967Z,6.72
2018-08-24T14:45:12.441Z,8.48
2018-08-24T14:48:17.062Z,7.55
2018-08-24T14:51:21.479Z,7.03
2018-08-24T14:54:25.918Z,7.25
2018-08-24T14:57:30.416Z,7.25
2018-08-24T15:00:34.851Z,7.03
2018-08-24T15:03:39.306Z,7.05
2018-08-24T15:06:43.722Z,7.77
2018-08-24T15:09:48.208Z,7.65
2018-08-24T15:12:52.655Z,6.90
2018-08-24T15:15:57.061Z,7.42
2018-08-24T15:19:01.575Z,7.33
2018-08-24T15:22:06.078Z,6.45
2018-08-24T15:25:10.505Z,6.67
2018-08-24T15:28:14.942Z,7.42
2018-08-24T15:31:26.085Z,6.42
2018-08-24T15:34:30.518Z,6.75
2018-08-24T15:37:34.957Z,6.97
2018-08-24T15:40:39.381Z,6.95
2018-08-24T15:43:43.802Z,5.83
2018-08-24T15:46:48.230Z,6.35
2018-08-24T15:49:52.654Z,6.62
2018-08-24T15:52:57.082Z,5.60
2018-08-24T15:56:01.478Z,5.90
2018-08-24T15:59:06.024Z,6.08
2018-08-24T16:02:10.438Z,5.90
2018-08-24T16:05:14.871Z,5.62
2018-08-24T16:08:19.290Z,6.03
2018-08-24T16:11:23.726Z,6.70
2018-08-24T16:14:28.267Z,5.90
2018-08-24T16:17:32.730Z,6.28
2018-08-24T16:20:37.151Z,5.25
2018-08-24T16:23:42.926Z,6.70
2018-08-24T16:26:47.613Z,6.33
2018-08-24T16:29:55.467Z,6.40
2018-08-24T16:32:59.939Z,6.05
2018-08-24T16:36:04.359Z,5.62
2018-08-24T16:39:09.703Z,5.00
2018-08-24T16:42:14.122Z,5.67
2018-08-24T16:45:18.550Z,6.83
2018-08-24T16:48:22.978Z,5.78
2018-08-24T16:51:27.424Z,5.05
2018-08-24T16:54:31.856Z,5.47
2018-08-24T16:57:36.287Z,5.30
2018-08-24T17:00:40.731Z,5.22
2018-08-24T17:03:45.205Z,5.70
2018-08-24T17:06:49.642Z,5.80
2018-08-24T17:09:54.132Z,6.35
2018-08-24T17:12:58.591Z,6.20
2018-08-24T17:16:03.874Z,5.05
2018-08-24T17:19:08.360Z,6.10
2018-08-24T17:22:12.789Z,5.92
2018-08-24T17:25:17.227Z,6.23
2018-08-24T17:28:21.643Z,5.97
2018-08-24T17:31:26.086Z,5.72
2018-08-24T17:34:30.545Z,6.37
2018-08-24T17:37:34.947Z,5.92
2018-08-24T17:40:39.426Z,6.30
2018-08-24T17:43:44.006Z,5.67
2018-08-24T17:46:48.464Z,5.40
2018-08-24T17:49:52.900Z,5.80
2018-08-24T17:52:57.310Z,5.80
2018-08-24T17:56:01.743Z,5.37
2018-08-24T17:59:06.243Z,5.50
2018-08-24T18:02:10.709Z,5.80
2018-08-24T18:05:15.141Z,5.17
2018-08-24T18:08:19.627Z,5.20
2018-08-24T18:11:24.050Z,6.22
2018-08-24T18:14:28.464Z,6.00
2018-08-24T18:17:32.890Z,6.00
2018-08-24T18:20:37.435Z,5.55
2018-08-24T18:23:42.014Z,6.80
2018-08-24T18:26:46.494Z,5.83
2018-08-24T18:29:50.919Z,5.80
2018-08-24T18:32:55.354Z,5.87
2018-08-24T18:35:59.792Z,5.75
2018-08-24T18:39:05.999Z,5.77
2018-08-24T18:42:10.454Z,5.90
2018-08-24T18:45:14.902Z,6.20
2018-08-24T18:48:19.326Z,6.13
2018-08-24T18:51:23.798Z,6.30
2018-08-24T18:54:28.206Z,6.20
2018-08-24T18:57:33.178Z,6.50
2018-08-24T19:00:37.615Z,5.33
2018-08-24T19:03:42.022Z,5.87
2018-08-24T19:06:46.446Z,5.75
2018-08-24T19:09:50.892Z,5.97
2018-08-24T19:12:55.327Z,6.20
2018-08-24T19:15:59.791Z,5.53
2018-08-24T19:19:09.464Z,5.80
2018-08-24T19:22:13.914Z,6.27
2018-08-24T19:25:18.417Z,5.58
2018-08-24T19:28:28.123Z,6.37
2018-08-24T19:31:32.585Z,5.23
2018-08-24T19:34:37.020Z,5.50
2018-08-24T19:37:41.523Z,5.80
2018-08-24T19:42:59.705Z,5.70
2018-08-24T19:46:04.207Z,6.30
2018-08-24T19:49:24.111Z,6.08
2018-08-24T19:52:28.630Z,5.22
2018-08-24T19:55:33.045Z,5.92
2018-08-24T19:58:42.746Z,6.17
2018-08-24T20:01:47.274Z,6.47
2018-08-24T20:04:51.721Z,6.23
2018-08-24T20:08:01.505Z,5.43
2018-08-24T20:11:06.053Z,6.15
2018-08-24T20:14:10.494Z,5.50
2018-08-24T20:17:20.122Z,6.40
2018-08-24T20:20:24.586Z,6.22
2018-08-24T20:23:29.043Z,6.17
2018-08-24T20:26:33.555Z,5.60
2018-08-24T20:29:37.957Z,6.00
2018-08-24T20:32:42.401Z,5.53
2018-08-24T20:35:46.854Z,5.72
2018-08-24T20:38:51.278Z,5.78
2018-08-24T20:41:55.763Z,6.22
2018-08-24T20:45:00.170Z,6.17
2018-08-24T20:48:05.059Z,5.55
2018-08-24T20:51:09.481Z,5.85
2018-08-24T20:54:13.911Z,6.20
2018-08-24T20:57:18.355Z,5.83
2018-08-24T21:00:22.767Z,6.08
2018-08-24T21:03:27.290Z,6.40
2018-08-24T21:06:31.776Z,5.47
2018-08-24T21:09:37.527Z,5.73
2018-08-24T21:12:42.166Z,6.70
2018-08-24T21:15:46.566Z,6.10
2018-08-24T21:18:50.992Z,6.10
2018-08-24T21:21:55.402Z,6.12
2018-08-24T21:24:59.885Z,5.67
2018-08-24T21:28:04.313Z,5.60
2018-08-24T21:31:08.727Z,5.33
2018-08-24T21:34:13.266Z,6.30
2018-08-24T21:37:17.685Z,7.57
2018-08-24T21:40:22.205Z,5.47
2018-08-24T21:43:26.638Z,6.15
2018-08-24T21:46:31.045Z,6.03
2018-08-24T21:49:35.485Z,6.10
2018-08-24T21:52:39.899Z,5.60
2018-08-24T21:55:44.325Z,5.40
2018-08-24T21:58:48.960Z,5.70
2018-08-24T22:01:53.787Z,5.07
2018-08-24T22:04:58.288Z,5.13
2018-08-24T22:08:02.900Z,4.87
2018-08-24T22:11:07.450Z,4.40
2018-08-24T22:14:12.043Z,4.30
2018-08-24T22:17:16.666Z,4.80
2018-08-24T22:20:21.489Z,4.60
2018-08-24T22:23:26.053Z,4.70
2018-08-24T22:26:31.039Z,4.90
2018-08-24T22:29:35.738Z,4.50
2018-08-24T22:32:40.469Z,4.90
2018-08-24T22:35:45.003Z,4.60
2018-08-24T22:38:49.458Z,5.08
2018-08-24T22:41:53.919Z,5.20
2018-08-24T22:44:58.386Z,4.43
2018-08-24T22:48:02.842Z,5.03
2018-08-24T22:51:07.326Z,5.30
2018-08-24T22:54:11.779Z,5.53
2018-08-24T22:57:16.278Z,4.77
2018-08-24T23:00:20.762Z,5.30
2018-08-24T23:03:25.235Z,6.10
2018-08-24T23:06:29.726Z,5.10
2018-08-24T23:09:34.198Z,5.63
2018-08-24T23:12:38.687Z,5.47
2018-08-24T23:15:43.163Z,5.13
2018-08-24T23:18:47.606Z,5.40
2018-08-24T23:21:52.110Z,4.70
2018-08-24T23:24:56.761Z,4.93
2018-08-24T23:28:01.246Z,4.23
2018-08-24T23:31:06.153Z,4.67
2018-08-24T23:34:10.704Z,4.47
2018-08-24T23:37:15.243Z,4.63
2018-08-24T23:40:19.751Z,4.40
2018-08-24T23:43:24.279Z,4.07
2018-08-24T23:46:28.713Z,3.50
2018-08-24T23:49:33.132Z,3.80
2018-08-24T23:52:37.633Z,4.00
2018-08-24T23:55:42.150Z,3.80
2018-08-24T23:58:46.602Z,4.70
